Flight Track Log - Related Links

Times and Time Zones

All times are in EDT time to prevent confusion due to time zone crossing. See the RPA3159 flight status page for this flight to view local times or setup timezone preferences in your user account.

Time Position Orientation Groundspeed Altitude Reporting Facility
EDT Latitude Longitude Course Direction KTS MPH feet Rate Location/Type
Wed 11:34:06 AM 44.3800 -73.1314 195° South 216 249 3,900  Level Boston Center
Wed 11:35:00 AM 44.1233 -73.2788 195° South  Level FlightAware Approximate
Wed 11:35:06 AM 44.3050 -73.1594 195° South 251 289 6,900  Level Boston Center
Wed 11:36:00 AM 44.0368 -73.3100 194° South  Level FlightAware Approximate
Wed 11:36:06 AM 44.2297 -73.1906 196° South 280 322 10,300  Level Boston Center
Wed 11:37:00 AM 43.9486 -73.3394 193° South  Level FlightAware Approximate
Wed 11:37:06 AM 44.1503 -73.2269 198° South 288 331 12,400  Level Boston Center
Wed 11:38:00 AM 43.8609 -73.3710 195° South  Level FlightAware Approximate
Wed 11:38:06 AM 44.0769 -73.2925 213° Southwest 302 348 15,000  Level Boston Center
Wed 11:39:00 AM 43.7646 -73.4072 195° South  Level FlightAware Approximate
Wed 11:39:18 AM 43.9867 -73.3750 213° Southwest 317 365 17,700  Level Boston Center
Wed 11:40:18 AM 43.9089 -73.4458 213° Southwest 334 384 20,400 2,300 Climbing Boston Center
Wed 11:41:18 AM 43.8292 -73.5164 213° Southwest 339 390 22,300 1,750 Climbing Boston Center
Wed 11:42:18 AM 43.7472 -73.5897 213° Southwest 345 397 23,900 1,500 Climbing Boston Center
Wed 11:43:18 AM 43.6631 -73.6656 213° Southwest 357 411 25,300 1,050 Climbing Boston Center
Wed 11:44:18 AM 43.5747 -73.7439 213° Southwest 370 426 26,000 350 Climbing Boston Center
Wed 11:45:18 AM 43.4819 -73.8278 213° Southwest 392 451 26,000  Level Boston Center
Wed 11:46:18 AM 43.3872 -73.9114 213° Southwest 403 464 26,000  Level Boston Center
Wed 11:47:18 AM 43.2942 -73.9947 213° Southwest 403 464 26,000  Level Boston Center
Wed 11:48:18 AM 43.1972 -74.0778 212° Southwest 408 470 26,000  Level Boston Center
Wed 11:49:18 AM 43.1042 -74.1633 214° Southwest 408 470 26,000  Level Boston Center
Wed 11:50:18 AM 43.0092 -74.2458 212° Southwest 408 470 26,000  Level Boston Center
Wed 11:51:18 AM 42.9161 -74.3283 213° Southwest 408 470 26,000  Level Boston Center
Wed 11:52:18 AM 42.8189 -74.4103 212° Southwest 414 476 26,000  Level Boston Center
Wed 11:53:18 AM 42.7236 -74.4947 213° Southwest 414 476 26,000  Level Boston Center
Wed 11:54:18 AM 42.6283 -74.5736 211° Southwest 414 476 26,000 -150 Level Boston Center
Wed 11:55:18 AM 42.5331 -74.6575 213° Southwest 419 482 25,700 -850 Descending Boston Center
Wed 11:56:18 AM 42.4375 -74.7386 212° Southwest 419 482 24,300 -1,676 Descending Boston Center
Wed 11:58:17 AM 42.2686 -74.8817 212° Southwest 407 468 20,700 -1,787 Descending New York Center
Wed 11:59:16 AM 42.1806 -74.9547 212° Southwest 391 450 19,000 -857 Descending New York Center
Wed 12:00:16 PM 42.0883 -75.0353 213° Southwest 378 435 19,000  Level New York Center
Wed 12:01:17 PM 42.0003 -75.1078 211° Southwest 373 429 19,000  Level New York Center
Wed 12:02:15 PM 41.9253 -75.1697 212° Southwest 373 429 19,000  Level New York Center
Wed 12:03:15 PM 41.8372 -75.2392 210° Southwest 373 429 19,000 -750 Level New York Center
Wed 12:04:15 PM 41.7447 -75.3164 212° Southwest 373 429 17,500 -984 Descending New York Center
Wed 12:05:17 PM 41.6611 -75.3800 210° Southwest 373 429 17,000 -400 Descending New York Center
Wed 12:06:15 PM 41.5750 -75.4489 211° Southwest 373 429 16,700 -1,017 Descending New York Center
Wed 12:07:15 PM 41.5278 -75.5372 234° Southwest 340 391 15,000 -1,350 Descending New York Center
Wed 12:08:15 PM 41.5061 -75.6603 257° West 317 365 14,000 -446 Descending New York Center
Wed 12:09:16 PM 41.4133 -75.6867 192° South 296 341 14,100 -198 Climbing New York Center
Wed 12:10:16 PM 41.3111 -75.6903 182° South 322 371 13,600 -893 Descending New York Center
Wed 12:11:17 PM 41.2153 -75.6914 180° South 345 397 12,300 -1,210 Descending New York Center
Wed 12:12:15 PM 41.1319 -75.6936 181° South 345 397 11,200 -1,119 Descending New York Center
Wed 12:13:15 PM 41.0400 -75.6981 182° South 345 397 10,100 -595 Descending New York Center
Wed 12:14:16 PM 40.9419 -75.6553 162° South 345 397 10,000 -49 Descending New York Center
Wed 12:15:17 PM 40.8497 -75.6131 161° South 345 397 10,000  Level New York Center
Wed 12:16:15 PM 40.7619 -75.5739 161° South 340 391 10,000  Level New York Center
Wed 12:17:16 PM 40.6800 -75.5353 160° South 340 391 10,000  Level New York Center
Wed 12:18:16 PM 40.5900 -75.4961 162° South 340 391 10,000  Level New York Center
Wed 12:19:14 PM 40.5019 -75.4547 160° South 340 391 10,000 -555 Level New York Center
Wed 12:20:15 PM 40.4161 -75.4133 160° South 320 368 8,900 -1,328 Descending New York Center
Wed 12:21:16 PM 40.3508 -75.3736 155° Southeast 294 338 7,300 -1,140 Descending New York Center
Wed 12:22:16 PM 40.2694 -75.3275 157° South 289 333 6,600 -645 Descending New York Center
Wed 12:23:17 PM 40.1958 -75.2872 157° South 289 333 6,000 -303 Descending New York Center
Wed 12:24:15 PM 40.1244 -75.2472 157° South 289 333 6,000  Level New York Center
Wed 12:25:15 PM 40.0739 -75.2033 146° Southeast 270 311 6,000  Level New York Center
Wed 12:26:16 PM 40.0544 -75.1153 106° East 227 261 6,000 -47 Level New York Center
Wed 12:27:22 PM 40.0333 -75.0333 109° East 221 254 5,900 -667 Descending Philadelphia TRACON
Wed 12:28:22 PM 39.9833 -75.0000 153° Southeast 203 234 4,600 -1,316 Descending Philadelphia TRACON
Wed 12:29:16 PM 39.9333 -74.9833 166° South 182 209 3,400 -1,304 Descending Philadelphia TRACON
Wed 12:30:17 PM 39.9167 -75.0500 252° West 168 193 2,100 -1,279 Descending Philadelphia TRACON

Login

Don't have an account? Register now (free) for customized features, flight alerts, and more!